createdAt,value
2019-05-19T00:01:29.859Z,12.90
2019-05-19T00:03:55.856Z,13.00
2019-05-19T00:06:21.829Z,13.00
2019-05-19T00:08:47.831Z,13.00
2019-05-19T00:11:13.785Z,12.90
2019-05-19T00:13:39.783Z,13.00
2019-05-19T00:16:06.488Z,12.90
2019-05-19T00:18:32.477Z,12.90
2019-05-19T00:20:58.410Z,12.90
2019-05-19T00:23:24.402Z,12.80
2019-05-19T00:25:51.117Z,12.80
2019-05-19T00:28:17.065Z,12.80
2019-05-19T00:30:43.093Z,12.80
2019-05-19T00:33:09.070Z,12.80
2019-05-19T00:35:35.069Z,12.80
2019-05-19T00:38:01.058Z,12.70
2019-05-19T00:40:27.052Z,12.70
2019-05-19T00:42:53.137Z,12.60
2019-05-19T00:45:19.131Z,12.50
2019-05-19T00:47:45.820Z,12.40
2019-05-19T00:50:11.833Z,12.40
2019-05-19T00:52:37.812Z,12.40
2019-05-19T00:55:03.817Z,12.30
2019-05-19T00:57:30.535Z,12.20
2019-05-19T00:59:56.532Z,12.20
2019-05-19T01:02:22.512Z,12.20
2019-05-19T01:04:49.240Z,12.20
2019-05-19T01:07:15.219Z,12.20
2019-05-19T01:09:41.210Z,12.20
2019-05-19T01:12:07.958Z,12.20
2019-05-19T01:14:33.950Z,12.20
2019-05-19T01:17:00.677Z,12.20
2019-05-19T01:19:27.439Z,12.00
2019-05-19T01:21:53.491Z,12.00
2019-05-19T01:24:19.484Z,12.00
2019-05-19T01:26:45.489Z,12.00
2019-05-19T01:29:11.457Z,11.90
2019-05-19T01:31:37.448Z,11.90
2019-05-19T01:34:03.415Z,11.90
2019-05-19T01:36:29.422Z,11.90
2019-05-19T01:38:55.379Z,11.90
2019-05-19T01:41:21.386Z,11.80
2019-05-19T01:43:47.413Z,11.80
2019-05-19T01:46:13.413Z,11.70
2019-05-19T01:48:40.125Z,11.70
2019-05-19T01:51:06.223Z,11.70
2019-05-19T01:53:32.220Z,11.70
2019-05-19T01:55:58.218Z,11.70
2019-05-19T01:58:24.930Z,11.60
2019-05-19T02:00:50.946Z,11.60
2019-05-19T02:03:16.973Z,11.60
2019-05-19T02:05:42.990Z,11.60
2019-05-19T02:08:09.013Z,11.60
2019-05-19T02:10:35.026Z,11.60
2019-05-19T02:13:01.023Z,11.60
2019-05-19T02:15:27.017Z,11.60
2019-05-19T02:17:53.731Z,11.60
2019-05-19T02:20:31.945Z,11.60
2019-05-19T02:22:46.486Z,11.60
2019-05-19T02:25:12.522Z,11.60
2019-05-19T02:27:38.512Z,11.60
2019-05-19T02:30:05.433Z,11.60
2019-05-19T02:32:31.426Z,11.70
2019-05-19T02:34:58.124Z,11.60
2019-05-19T02:37:24.142Z,11.60
2019-05-19T02:39:50.134Z,11.50
2019-05-19T02:42:16.858Z,11.60
2019-05-19T02:44:43.575Z,11.50
2019-05-19T02:47:09.644Z,11.50
2019-05-19T02:49:35.638Z,11.50
2019-05-19T02:52:01.638Z,11.50
2019-05-19T02:54:27.642Z,11.50
2019-05-19T02:56:53.639Z,11.50
2019-05-19T02:59:20.331Z,11.40
2019-05-19T03:01:46.330Z,11.40
2019-05-19T03:04:12.298Z,11.40
2019-05-19T03:06:39.970Z,11.50
2019-05-19T03:09:05.955Z,11.40
2019-05-19T03:11:31.956Z,11.50
2019-05-19T03:13:57.958Z,11.40
2019-05-19T03:16:23.954Z,11.40
2019-05-19T03:18:50.697Z,11.40
2019-05-19T03:21:16.724Z,11.30
2019-05-19T03:23:43.447Z,11.40
2019-05-19T03:26:09.507Z,11.40
2019-05-19T03:28:35.495Z,11.40
2019-05-19T03:31:01.568Z,11.40
2019-05-19T03:33:27.558Z,11.40
2019-05-19T03:35:54.281Z,11.40
2019-05-19T03:38:20.302Z,11.40
2019-05-19T03:40:47.099Z,11.40
2019-05-19T03:43:13.132Z,11.40
2019-05-19T03:45:39.127Z,11.40
2019-05-19T03:48:05.164Z,11.50
2019-05-19T03:50:31.221Z,11.50
2019-05-19T03:52:57.231Z,11.50
2019-05-19T03:55:23.306Z,11.50
2019-05-19T03:57:49.271Z,11.60
2019-05-19T04:00:15.259Z,11.60
2019-05-19T04:02:41.398Z,11.60
2019-05-19T04:05:07.398Z,11.70
2019-05-19T04:07:33.403Z,11.70
2019-05-19T04:09:59.404Z,11.80
2019-05-19T04:12:25.405Z,11.80
2019-05-19T04:14:51.390Z,11.90
2019-05-19T04:17:17.369Z,12.00
2019-05-19T04:19:43.356Z,12.10
2019-05-19T04:22:09.424Z,12.10
2019-05-19T04:24:35.416Z,12.20
2019-05-19T04:27:01.435Z,12.20
2019-05-19T04:29:27.413Z,12.20
2019-05-19T04:31:53.443Z,12.20
2019-05-19T04:34:20.224Z,12.40
2019-05-19T04:36:46.241Z,12.30
2019-05-19T04:39:12.947Z,12.40
2019-05-19T04:41:40.348Z,12.40
2019-05-19T04:44:05.010Z,12.40
2019-05-19T04:46:31.729Z,12.50
2019-05-19T04:48:57.739Z,12.50
2019-05-19T04:51:23.754Z,12.60
2019-05-19T04:53:49.780Z,12.70
2019-05-19T04:56:19.497Z,12.80
2019-05-19T04:58:41.822Z,13.00
2019-05-19T05:01:07.813Z,13.00
2019-05-19T05:03:33.808Z,12.90
2019-05-19T05:05:59.779Z,13.00
2019-05-19T05:08:30.250Z,13.10
2019-05-19T05:10:51.814Z,13.30
2019-05-19T05:13:17.810Z,13.40
2019-05-19T05:15:43.842Z,13.40
2019-05-19T05:18:09.861Z,13.60
2019-05-19T05:20:36.596Z,13.80
2019-05-19T05:23:03.365Z,13.90
2019-05-19T05:25:29.341Z,13.90
2019-05-19T05:27:55.334Z,13.80
2019-05-19T05:30:21.316Z,14.00
2019-05-19T05:32:48.075Z,14.20
2019-05-19T05:35:14.082Z,14.20
2019-05-19T05:37:40.818Z,14.40
2019-05-19T05:40:07.586Z,14.50
2019-05-19T05:42:33.599Z,14.50
2019-05-19T05:45:00.428Z,14.70
2019-05-19T05:47:26.458Z,14.70
2019-05-19T05:49:53.169Z,15.00
2019-05-19T05:52:19.210Z,15.00
2019-05-19T05:54:46.000Z,15.30
2019-05-19T05:57:12.004Z,15.20
2019-05-19T05:59:38.027Z,15.30
2019-05-19T06:02:04.029Z,15.10
2019-05-19T06:04:30.765Z,15.20
2019-05-19T06:06:56.775Z,15.10
2019-05-19T06:09:22.791Z,15.30
2019-05-19T06:11:49.533Z,15.60
2019-05-19T06:14:16.293Z,15.90
2019-05-19T06:16:43.012Z,16.10
2019-05-19T06:19:09.025Z,16.10
2019-05-19T06:21:35.013Z,16.40
2019-05-19T06:24:01.035Z,16.50
2019-05-19T06:26:27.028Z,16.90
2019-05-19T06:28:53.770Z,17.30
2019-05-19T06:31:20.489Z,17.80
2019-05-19T06:33:46.492Z,17.70
2019-05-19T06:36:12.472Z,18.50
2019-05-19T06:38:39.247Z,20.10
2019-05-19T06:41:05.237Z,20.10
2019-05-19T06:43:31.277Z,20.80
2019-05-19T06:45:57.293Z,21.10
2019-05-19T06:48:23.298Z,21.30
2019-05-19T06:50:49.290Z,21.40
2019-05-19T06:53:15.309Z,21.20
2019-05-19T06:55:41.343Z,21.50
2019-05-19T06:58:07.347Z,21.80
2019-05-19T07:00:33.355Z,22.40
2019-05-19T07:02:59.346Z,22.40
2019-05-19T07:05:25.379Z,22.50
2019-05-19T07:07:51.361Z,23.00
2019-05-19T07:10:17.390Z,23.60
2019-05-19T07:12:43.375Z,23.50
2019-05-19T07:15:09.396Z,24.30
2019-05-19T07:17:35.375Z,23.50
2019-05-19T07:20:02.173Z,24.00
2019-05-19T07:22:28.146Z,24.00
2019-05-19T07:24:54.886Z,22.90
2019-05-19T07:27:21.602Z,23.50
2019-05-19T07:29:47.616Z,23.50
2019-05-19T07:32:13.613Z,23.50
2019-05-19T07:34:39.637Z,22.70
2019-05-19T07:37:05.618Z,24.20
2019-05-19T07:39:32.364Z,24.40
2019-05-19T07:41:58.379Z,24.40
2019-05-19T07:44:25.150Z,25.40
2019-05-19T07:46:51.116Z,25.40
2019-05-19T07:49:17.141Z,25.60
2019-05-19T07:51:43.219Z,25.60
2019-05-19T07:54:09.200Z,27.20
2019-05-19T07:56:35.214Z,26.90
2019-05-19T07:59:01.269Z,26.90
2019-05-19T08:01:27.990Z,26.40
2019-05-19T08:03:53.968Z,26.40
2019-05-19T08:06:19.997Z,27.30
2019-05-19T08:08:45.973Z,26.60
2019-05-19T08:11:12.722Z,27.40
2019-05-19T08:13:39.454Z,27.70
2019-05-19T08:16:06.206Z,27.80
2019-05-19T08:18:32.186Z,27.70
2019-05-19T08:20:58.355Z,27.20
2019-05-19T08:23:24.249Z,27.40
2019-05-19T08:25:50.273Z,26.40
2019-05-19T08:28:17.004Z,27.60
2019-05-19T08:30:43.043Z,27.60
2019-05-19T08:33:09.080Z,27.80
2019-05-19T08:35:35.106Z,27.50
2019-05-19T08:38:01.119Z,27.80
2019-05-19T08:40:27.137Z,28.30
2019-05-19T08:42:53.126Z,28.90
2019-05-19T08:45:19.149Z,28.60
2019-05-19T08:47:45.134Z,29.40
2019-05-19T08:50:11.151Z,29.30
2019-05-19T08:52:37.882Z,27.50
2019-05-19T08:55:04.641Z,25.90
2019-05-19T08:57:30.670Z,25.80
2019-05-19T08:59:56.661Z,25.70
2019-05-19T09:02:23.437Z,25.40
2019-05-19T09:04:49.413Z,25.40
2019-05-19T09:07:15.418Z,25.20
2019-05-19T09:09:41.391Z,25.20
2019-05-19T09:12:08.137Z,23.90
2019-05-19T09:14:34.835Z,23.20
2019-05-19T09:17:00.860Z,23.20
2019-05-19T09:19:27.602Z,23.20
2019-05-19T09:21:53.616Z,23.20
2019-05-19T09:24:30.195Z,24.00
2019-05-19T09:26:45.661Z,24.50
2019-05-19T09:29:11.631Z,25.20
2019-05-19T09:31:41.192Z,24.50
2019-05-19T09:34:04.411Z,24.50
2019-05-19T09:36:30.441Z,24.50
2019-05-19T09:38:56.408Z,25.00
2019-05-19T09:41:23.173Z,26.50
2019-05-19T09:43:49.884Z,27.30
2019-05-19T09:46:15.894Z,27.20
2019-05-19T09:48:41.866Z,27.10
2019-05-19T09:51:08.603Z,27.40
2019-05-19T09:53:34.643Z,27.40
2019-05-19T09:56:00.637Z,26.30
2019-05-19T09:58:26.641Z,25.80
2019-05-19T10:00:52.629Z,25.30
2019-05-19T10:03:19.753Z,25.30
2019-05-19T10:05:44.674Z,25.40
2019-05-19T10:08:10.715Z,24.60
2019-05-19T10:10:36.675Z,24.90
2019-05-19T10:13:02.757Z,25.20
2019-05-19T10:15:29.506Z,25.40
2019-05-19T10:17:55.491Z,25.40
2019-05-19T10:20:22.213Z,25.50
2019-05-19T10:22:48.216Z,25.50
2019-05-19T10:25:22.959Z,25.30
2019-05-19T10:27:40.249Z,25.90
2019-05-19T10:30:06.218Z,25.70
2019-05-19T10:32:32.230Z,25.00
2019-05-19T10:34:58.230Z,25.50
2019-05-19T10:37:24.232Z,25.90
2019-05-19T10:39:50.224Z,25.90
2019-05-19T10:42:16.203Z,26.00
2019-05-19T10:44:42.211Z,26.40
2019-05-19T10:47:08.197Z,25.80
2019-05-19T10:49:34.203Z,26.00
2019-05-19T10:52:00.915Z,26.60
2019-05-19T10:54:26.925Z,26.60
2019-05-19T10:56:52.898Z,26.30
2019-05-19T10:59:18.889Z,26.10
2019-05-19T11:01:44.848Z,26.70
2019-05-19T11:04:10.852Z,27.00
2019-05-19T11:06:37.570Z,27.10
2019-05-19T11:09:03.588Z,27.10
2019-05-19T11:11:29.687Z,27.00
2019-05-19T11:13:55.886Z,26.60
2019-05-19T11:16:21.903Z,26.10
2019-05-19T11:18:47.929Z,25.30
2019-05-19T11:21:14.651Z,25.50
2019-05-19T11:23:41.429Z,26.00
2019-05-19T11:26:07.456Z,26.00
2019-05-19T11:28:33.713Z,26.40
2019-05-19T11:30:59.685Z,26.90
2019-05-19T11:33:26.412Z,26.80
2019-05-19T11:35:53.149Z,26.90
2019-05-19T11:38:19.895Z,26.00
2019-05-19T11:40:46.609Z,25.70
2019-05-19T11:43:13.363Z,25.80
2019-05-19T11:45:39.364Z,25.80
2019-05-19T11:48:05.354Z,25.70
2019-05-19T11:50:31.369Z,24.90
2019-05-19T11:52:58.055Z,25.40
2019-05-19T11:55:24.055Z,25.30
2019-05-19T11:57:50.033Z,25.90
2019-05-19T12:00:16.770Z,26.00
2019-05-19T12:02:42.723Z,26.00
2019-05-19T12:05:08.726Z,26.00
2019-05-19T12:07:34.731Z,26.10
2019-05-19T12:10:00.731Z,25.60
2019-05-19T12:12:26.694Z,25.70
2019-05-19T12:14:53.481Z,25.10
2019-05-19T12:17:19.467Z,25.10
2019-05-19T12:19:46.229Z,24.90
2019-05-19T12:22:12.212Z,24.90
2019-05-19T12:24:38.961Z,25.10
2019-05-19T12:27:05.681Z,25.10
2019-05-19T12:29:31.683Z,25.10
2019-05-19T12:31:57.693Z,25.20
2019-05-19T12:34:23.721Z,25.20
2019-05-19T12:36:49.793Z,25.30
2019-05-19T12:39:15.918Z,25.60
2019-05-19T12:41:41.967Z,25.90
2019-05-19T12:44:07.986Z,25.20
2019-05-19T12:46:34.007Z,25.00
2019-05-19T12:49:00.040Z,24.90
2019-05-19T12:51:26.943Z,25.00
2019-05-19T12:53:52.064Z,25.30
2019-05-19T12:56:18.811Z,25.20
2019-05-19T12:58:44.790Z,25.20
2019-05-19T13:01:10.795Z,25.00
2019-05-19T13:03:36.783Z,24.50
2019-05-19T13:06:02.811Z,24.80
2019-05-19T13:08:29.534Z,25.10
2019-05-19T13:10:56.283Z,25.20
2019-05-19T13:13:23.009Z,25.50
2019-05-19T13:15:49.059Z,25.50
2019-05-19T13:18:15.040Z,25.40
2019-05-19T13:20:41.058Z,25.10
2019-05-19T13:23:07.037Z,24.80
2019-05-19T13:25:33.126Z,24.80
2019-05-19T13:27:59.320Z,24.80
2019-05-19T13:30:26.110Z,25.20
2019-05-19T13:32:52.828Z,25.20
2019-05-19T13:35:20.772Z,25.20
2019-05-19T13:37:46.776Z,25.40
2019-05-19T13:40:12.760Z,25.20
2019-05-19T13:42:39.494Z,24.80
2019-05-19T13:45:06.255Z,24.60
2019-05-19T13:47:32.978Z,24.70
2019-05-19T13:49:59.007Z,24.70
2019-05-19T13:52:25.724Z,25.20
2019-05-19T13:54:51.733Z,25.20
2019-05-19T13:57:17.741Z,25.20
2019-05-19T13:59:43.726Z,25.10
2019-05-19T14:02:09.758Z,24.80
2019-05-19T14:04:35.963Z,24.90
2019-05-19T14:07:01.912Z,24.90
2019-05-19T14:09:27.905Z,24.70
2019-05-19T14:11:53.903Z,24.50
2019-05-19T14:14:19.882Z,24.60
2019-05-19T14:16:46.625Z,25.30
2019-05-19T14:19:12.593Z,25.30
2019-05-19T14:21:38.627Z,25.30
2019-05-19T14:24:04.688Z,24.40
2019-05-19T14:26:30.694Z,23.70
2019-05-19T14:28:57.452Z,21.80
2019-05-19T14:31:24.229Z,21.20
2019-05-19T14:33:50.212Z,21.20
2019-05-19T14:36:16.974Z,20.20
2019-05-19T14:38:43.071Z,20.10
2019-05-19T14:41:09.082Z,19.10
2019-05-19T14:43:35.064Z,17.90
2019-05-19T14:46:01.079Z,17.30
2019-05-19T14:48:27.057Z,17.00
2019-05-19T14:50:53.055Z,16.90
2019-05-19T14:53:19.044Z,16.80
2019-05-19T14:55:45.027Z,16.80
2019-05-19T14:58:11.018Z,16.60
2019-05-19T15:00:36.987Z,16.70
2019-05-19T15:03:03.732Z,16.60
2019-05-19T15:05:29.741Z,16.60
2019-05-19T15:07:55.750Z,16.60
2019-05-19T15:10:21.743Z,16.60
2019-05-19T15:12:47.761Z,16.70
2019-05-19T15:15:13.745Z,16.80
2019-05-19T15:17:40.479Z,16.70
2019-05-19T15:20:07.190Z,16.90
2019-05-19T15:22:33.187Z,16.90
2019-05-19T15:24:59.151Z,17.00
2019-05-19T15:27:25.149Z,17.10
2019-05-19T15:29:51.134Z,17.20
2019-05-19T15:32:17.157Z,17.20
2019-05-19T15:34:43.175Z,17.30
2019-05-19T15:37:09.209Z,17.30
2019-05-19T15:39:35.205Z,17.30
2019-05-19T15:42:01.215Z,17.60
2019-05-19T15:44:28.021Z,17.80
2019-05-19T15:46:54.072Z,17.70
2019-05-19T15:49:20.271Z,18.10
2019-05-19T15:52:00.610Z,18.00
2019-05-19T15:54:13.168Z,18.10
2019-05-19T15:56:39.175Z,18.10
2019-05-19T15:59:05.146Z,18.20
2019-05-19T16:01:31.878Z,18.10
2019-05-19T16:03:57.898Z,18.10
2019-05-19T16:06:24.615Z,18.10
2019-05-19T16:08:50.595Z,18.10
2019-05-19T16:11:16.557Z,18.10
2019-05-19T16:13:42.554Z,18.10
2019-05-19T16:16:08.537Z,18.20
2019-05-19T16:18:35.287Z,18.40
2019-05-19T16:21:01.989Z,18.40
2019-05-19T16:23:27.995Z,18.40
2019-05-19T16:25:53.972Z,18.40
2019-05-19T16:28:30.267Z,18.40
2019-05-19T16:30:46.757Z,18.30
2019-05-19T16:33:12.751Z,18.40
2019-05-19T16:35:38.774Z,18.50
2019-05-19T16:38:04.815Z,18.50
2019-05-19T16:40:30.771Z,18.40
2019-05-19T16:42:56.772Z,18.40
2019-05-19T16:45:22.750Z,18.40
2019-05-19T16:47:49.515Z,18.30
2019-05-19T16:50:16.251Z,18.40
2019-05-19T16:52:42.261Z,18.40
2019-05-19T16:55:09.013Z,18.30
2019-05-19T16:57:35.756Z,18.30
2019-05-19T17:00:01.749Z,18.30
2019-05-19T17:02:27.767Z,18.30
2019-05-19T17:04:53.786Z,18.20
2019-05-19T17:07:19.750Z,18.20
2019-05-19T17:09:46.494Z,18.10
2019-05-19T17:12:12.468Z,18.10
2019-05-19T17:14:38.453Z,18.10
2019-05-19T17:17:04.451Z,18.10
2019-05-19T17:19:30.444Z,17.90
2019-05-19T17:21:56.462Z,17.90
2019-05-19T17:24:22.468Z,17.90
2019-05-19T17:26:48.465Z,17.80
2019-05-19T17:29:15.220Z,17.80
2019-05-19T17:31:41.185Z,17.80
2019-05-19T17:34:07.176Z,17.80
2019-05-19T17:36:33.136Z,17.90
2019-05-19T17:38:59.153Z,17.80
2019-05-19T17:41:25.149Z,17.90
2019-05-19T17:43:51.170Z,17.80
2019-05-19T17:46:17.149Z,17.80
2019-05-19T17:48:50.007Z,17.70
2019-05-19T17:51:15.985Z,17.70
2019-05-19T17:53:42.006Z,17.70
2019-05-19T17:56:08.003Z,17.50
2019-05-19T17:58:34.729Z,17.50
2019-05-19T18:01:00.732Z,17.50
2019-05-19T18:03:26.710Z,17.50
2019-05-19T18:05:52.756Z,17.50
2019-05-19T18:08:18.745Z,17.50
2019-05-19T18:10:44.763Z,17.50
2019-05-19T18:13:11.506Z,17.40
2019-05-19T18:15:38.283Z,17.40
2019-05-19T18:18:04.262Z,17.30
2019-05-19T18:20:30.278Z,17.30
2019-05-19T18:22:56.269Z,17.30
2019-05-19T18:25:22.326Z,17.20
2019-05-19T18:27:49.076Z,17.20
2019-05-19T18:30:15.130Z,17.20
2019-05-19T18:32:41.105Z,17.10
2019-05-19T18:35:07.109Z,17.10
2019-05-19T18:37:33.118Z,17.00
2019-05-19T18:39:59.158Z,17.00
2019-05-19T18:42:25.124Z,17.00
2019-05-19T18:44:51.870Z,17.00
2019-05-19T18:47:18.577Z,16.90
2019-05-19T18:49:44.573Z,16.90
2019-05-19T18:52:10.585Z,16.90
2019-05-19T18:54:36.566Z,16.90
2019-05-19T18:57:02.594Z,16.90
2019-05-19T18:59:29.340Z,16.90
2019-05-19T19:01:56.090Z,16.80
2019-05-19T19:04:22.098Z,16.80
2019-05-19T19:06:48.857Z,16.80
2019-05-19T19:09:15.590Z,16.80
2019-05-19T19:11:42.344Z,16.80
2019-05-19T19:14:08.313Z,16.80
2019-05-19T19:16:34.339Z,16.80
2019-05-19T19:19:00.310Z,16.80
2019-05-19T19:21:27.042Z,16.80
2019-05-19T19:23:53.759Z,16.80
2019-05-19T19:26:19.772Z,16.80
2019-05-19T19:28:45.786Z,16.70
2019-05-19T19:31:11.795Z,16.70
2019-05-19T19:33:37.782Z,16.70
2019-05-19T19:36:04.544Z,16.70
2019-05-19T19:38:30.549Z,16.60
2019-05-19T19:40:56.558Z,16.70
2019-05-19T19:43:22.570Z,16.60
2019-05-19T19:45:49.360Z,16.60
2019-05-19T19:48:15.373Z,16.60
2019-05-19T19:50:41.344Z,16.50
2019-05-19T19:53:07.389Z,16.40
2019-05-19T19:55:34.137Z,16.40
2019-05-19T19:58:00.892Z,16.30
2019-05-19T20:00:27.597Z,16.30
2019-05-19T20:02:53.616Z,16.20
2019-05-19T20:05:19.646Z,16.30
2019-05-19T20:07:45.711Z,16.30
2019-05-19T20:10:11.700Z,16.20
2019-05-19T20:12:37.733Z,16.30
2019-05-19T20:15:03.838Z,16.40
2019-05-19T20:17:29.840Z,16.40
2019-05-19T20:19:55.820Z,16.40
2019-05-19T20:22:21.857Z,16.50
2019-05-19T20:24:47.848Z,16.50
2019-05-19T20:27:14.617Z,16.60
2019-05-19T20:29:40.589Z,16.60
2019-05-19T20:32:06.614Z,16.70
2019-05-19T20:34:32.584Z,16.70
2019-05-19T20:36:59.338Z,16.20
2019-05-19T20:39:25.344Z,16.20
2019-05-19T20:41:52.087Z,15.90
2019-05-19T20:44:18.043Z,15.90
2019-05-19T20:46:44.055Z,15.80
2019-05-19T20:49:10.059Z,15.60
2019-05-19T20:51:36.786Z,15.50
2019-05-19T20:54:03.553Z,15.50
2019-05-19T20:56:29.507Z,15.50
2019-05-19T20:58:55.495Z,15.50
2019-05-19T21:01:21.461Z,15.40
2019-05-19T21:03:47.437Z,15.40
2019-05-19T21:06:13.430Z,15.40
2019-05-19T21:08:39.417Z,15.30
2019-05-19T21:11:05.390Z,15.20
2019-05-19T21:13:32.151Z,15.20
2019-05-19T21:15:58.172Z,15.20
2019-05-19T21:18:24.176Z,15.20
2019-05-19T21:20:50.868Z,15.10
2019-05-19T21:23:16.866Z,15.10
2019-05-19T21:25:42.831Z,15.10
2019-05-19T21:28:08.819Z,15.10
2019-05-19T21:30:34.774Z,15.10
2019-05-19T21:33:00.786Z,15.10
2019-05-19T21:35:26.778Z,15.10
2019-05-19T21:37:52.791Z,15.10
2019-05-19T21:40:18.804Z,15.10
2019-05-19T21:42:44.901Z,15.00
2019-05-19T21:45:10.952Z,15.00
2019-05-19T21:47:37.709Z,14.90
2019-05-19T21:50:03.744Z,14.90
2019-05-19T21:52:29.787Z,14.90
2019-05-19T21:54:55.736Z,14.90
2019-05-19T21:57:21.714Z,14.90
2019-05-19T21:59:47.716Z,14.80
2019-05-19T22:02:14.438Z,14.60
2019-05-19T22:04:41.185Z,14.60
2019-05-19T22:07:07.166Z,14.60
2019-05-19T22:09:33.150Z,14.50
2019-05-19T22:11:59.143Z,14.40
2019-05-19T22:14:25.906Z,14.30
2019-05-19T22:16:52.635Z,14.20
2019-05-19T22:19:19.388Z,14.20
2019-05-19T22:21:45.380Z,14.20
2019-05-19T22:24:11.485Z,14.20
2019-05-19T22:26:37.449Z,14.10
2019-05-19T22:29:04.207Z,14.00
2019-05-19T22:31:36.829Z,14.00
2019-05-19T22:33:56.257Z,14.00
2019-05-19T22:36:22.233Z,14.00
2019-05-19T22:38:48.231Z,13.90
2019-05-19T22:41:14.215Z,13.80
2019-05-19T22:43:40.256Z,13.80
2019-05-19T22:46:06.218Z,13.80
2019-05-19T22:48:32.233Z,13.80
2019-05-19T22:50:58.220Z,13.70
2019-05-19T22:53:24.195Z,13.70
2019-05-19T22:55:50.192Z,13.80
2019-05-19T22:58:16.171Z,13.80
2019-05-19T23:00:42.912Z,13.80
2019-05-19T23:03:09.639Z,13.70
2019-05-19T23:05:36.399Z,13.70
2019-05-19T23:08:03.123Z,13.70
2019-05-19T23:10:29.132Z,13.70
2019-05-19T23:12:55.119Z,13.70
2019-05-19T23:15:21.119Z,13.60
2019-05-19T23:17:47.147Z,13.60
2019-05-19T23:20:13.130Z,13.60
2019-05-19T23:22:39.099Z,13.50
2019-05-19T23:25:05.121Z,13.50
2019-05-19T23:27:31.105Z,13.50
2019-05-19T23:29:57.843Z,13.60
2019-05-19T23:32:23.824Z,13.60
2019-05-19T23:34:49.836Z,13.60
2019-05-19T23:37:15.795Z,13.60
2019-05-19T23:39:41.857Z,13.60
2019-05-19T23:42:08.573Z,13.60
2019-05-19T23:44:34.584Z,13.60
2019-05-19T23:47:00.586Z,13.60
2019-05-19T23:49:26.632Z,13.60
2019-05-19T23:51:52.775Z,13.50
2019-05-19T23:54:18.839Z,13.50
2019-05-19T23:56:45.631Z,13.50
2019-05-19T23:59:11.615Z,13.50
